sensor_id;sensor_type;location;lat;lon;timestamp;P1;P2;P0
85502;PMS5003;75910;51.198;6.010;2024-03-02T00:00:11;0.00;0.00;0.00
85502;PMS5003;75910;51.198;6.010;2024-03-02T00:02:41;1.60;1.00;0.00
85502;PMS5003;75910;51.198;6.010;2024-03-02T00:05:07;1.00;1.00;0.00
85502;PMS5003;75910;51.198;6.010;2024-03-02T00:07:32;0.00;0.00;0.00
85502;PMS5003;75910;51.198;6.010;2024-03-02T00:09:58;1.00;0.00;0.00
85502;PMS5003;75910;51.198;6.010;2024-03-02T00:12:23;0.25;0.25;0.00
85502;PMS5003;75910;51.198;6.010;2024-03-02T00:14:48;1.00;0.50;0.00
85502;PMS5003;75910;51.198;6.010;2024-03-02T00:17:17;1.00;1.00;0.00
85502;PMS5003;75910;51.198;6.010;2024-03-02T00:19:46;0.80;0.80;0.00
85502;PMS5003;75910;51.198;6.010;2024-03-02T00:22:11;1.00;1.00;0.00
85502;PMS5003;75910;51.198;6.010;2024-03-02T00:24:36;1.00;0.50;0.00
85502;PMS5003;75910;51.198;6.010;2024-03-02T00:27:02;1.50;1.00;0.00
85502;PMS5003;75910;51.198;6.010;2024-03-02T00:29:28;1.20;1.20;0.40
85502;PMS5003;75910;51.198;6.010;2024-03-02T00:31:54;1.50;1.00;0.00
85502;PMS5003;75910;51.198;6.010;2024-03-02T00:34:20;2.00;1.00;0.00
85502;PMS5003;75910;51.198;6.010;2024-03-02T00:36:46;0.00;0.00;0.00
85502;PMS5003;75910;51.198;6.010;2024-03-02T00:39:12;0.50;0.50;0.00
85502;PMS5003;75910;51.198;6.010;2024-03-02T00:41:38;0.20;0.20;0.00
85502;PMS5003;75910;51.198;6.010;2024-03-02T00:44:06;0.00;0.00;0.00
85502;PMS5003;75910;51.198;6.010;2024-03-02T00:46:38;1.00;1.00;0.00
85502;PMS5003;75910;51.198;6.010;2024-03-02T00:49:04;2.00;1.00;0.00
85502;PMS5003;75910;51.198;6.010;2024-03-02T00:51:31;1.00;1.00;0.00
85502;PMS5003;75910;51.198;6.010;2024-03-02T00:54:00;0.80;0.00;0.00
85502;PMS5003;75910;51.198;6.010;2024-03-02T00:56:26;0.00;0.00;0.00
85502;PMS5003;75910;51.198;6.010;2024-03-02T00:58:51;0.00;0.00;0.00
85502;PMS5003;75910;51.198;6.010;2024-03-02T01:01:16;0.00;0.00;0.00
85502;PMS5003;75910;51.198;6.010;2024-03-02T01:03:42;0.00;0.00;0.00
85502;PMS5003;75910;51.198;6.010;2024-03-02T01:06:07;0.00;0.00;0.00
85502;PMS5003;75910;51.198;6.010;2024-03-02T01:08:33;1.75;1.00;0.75
85502;PMS5003;75910;51.198;6.010;2024-03-02T01:10:59;1.20;1.00;0.00
85502;PMS5003;75910;51.198;6.010;2024-03-02T01:13:24;0.00;0.00;0.00
85502;PMS5003;75910;51.198;6.010;2024-03-02T01:15:50;1.00;1.00;0.00
85502;PMS5003;75910;51.198;6.010;2024-03-02T01:18:15;0.75;0.00;0.00
85502;PMS5003;75910;51.198;6.010;2024-03-02T01:20:40;0.75;0.75;0.00
85502;PMS5003;75910;51.198;6.010;2024-03-02T01:23:05;1.00;1.00;0.00
85502;PMS5003;75910;51.198;6.010;2024-03-02T01:25:31;0.75;0.75;0.00
85502;PMS5003;75910;51.198;6.010;2024-03-02T01:27:56;1.00;1.00;0.00
85502;PMS5003;75910;51.198;6.010;2024-03-02T01:30:21;1.00;1.00;0.00
85502;PMS5003;75910;51.198;6.010;2024-03-02T01:32:46;0.25;0.25;0.00
85502;PMS5003;75910;51.198;6.010;2024-03-02T01:35:12;1.00;1.00;0.00
85502;PMS5003;75910;51.198;6.010;2024-03-02T01:37:37;0.75;0.00;0.00
85502;PMS5003;75910;51.198;6.010;2024-03-02T01:40:02;0.00;0.00;0.00
85502;PMS5003;75910;51.198;6.010;2024-03-02T01:42:28;1.00;1.00;0.00
85502;PMS5003;75910;51.198;6.010;2024-03-02T01:44:53;1.00;1.00;0.00
85502;PMS5003;75910;51.198;6.010;2024-03-02T01:47:18;1.00;0.25;0.00
85502;PMS5003;75910;51.198;6.010;2024-03-02T01:49:43;1.25;1.00;0.00
85502;PMS5003;75910;51.198;6.010;2024-03-02T01:52:08;1.00;1.00;0.00
85502;PMS5003;75910;51.198;6.010;2024-03-02T01:54:34;0.75;0.75;0.00
85502;PMS5003;75910;51.198;6.010;2024-03-02T01:56:59;0.00;0.00;0.00
85502;PMS5003;75910;51.198;6.010;2024-03-02T01:59:25;1.00;0.00;0.00
85502;PMS5003;75910;51.198;6.010;2024-03-02T02:01:50;0.00;0.00;0.00
85502;PMS5003;75910;51.198;6.010;2024-03-02T02:04:15;0.75;0.25;0.00
85502;PMS5003;75910;51.198;6.010;2024-03-02T02:06:40;0.75;0.75;0.00
85502;PMS5003;75910;51.198;6.010;2024-03-02T02:09:06;0.00;0.00;0.00
85502;PMS5003;75910;51.198;6.010;2024-03-02T02:11:33;0.00;0.00;0.00
85502;PMS5003;75910;51.198;6.010;2024-03-02T02:13:58;1.00;0.75;0.00
85502;PMS5003;75910;51.198;6.010;2024-03-02T02:16:23;0.00;0.00;0.00
85502;PMS5003;75910;51.198;6.010;2024-03-02T02:18:49;0.00;0.00;0.00
85502;PMS5003;75910;51.198;6.010;2024-03-02T02:21:14;0.00;0.00;0.00
85502;PMS5003;75910;51.198;6.010;2024-03-02T02:23:39;1.00;0.00;0.00
85502;PMS5003;75910;51.198;6.010;2024-03-02T02:26:04;0.00;0.00;0.00
85502;PMS5003;75910;51.198;6.010;2024-03-02T02:28:29;0.00;0.00;0.00
85502;PMS5003;75910;51.198;6.010;2024-03-02T02:30:55;0.00;0.00;0.00
85502;PMS5003;75910;51.198;6.010;2024-03-02T02:33:21;0.75;0.00;0.00
85502;PMS5003;75910;51.198;6.010;2024-03-02T02:35:46;0.00;0.00;0.00
85502;PMS5003;75910;51.198;6.010;2024-03-02T02:38:11;0.00;0.00;0.00
85502;PMS5003;75910;51.198;6.010;2024-03-02T02:40:37;0.00;0.00;0.00
85502;PMS5003;75910;51.198;6.010;2024-03-02T02:43:02;0.00;0.00;0.00
85502;PMS5003;75910;51.198;6.010;2024-03-02T02:45:27;0.00;0.00;0.00
85502;PMS5003;75910;51.198;6.010;2024-03-02T02:47:52;0.00;0.00;0.00
85502;PMS5003;75910;51.198;6.010;2024-03-02T02:50:17;0.00;0.00;0.00
85502;PMS5003;75910;51.198;6.010;2024-03-02T02:52:43;0.00;0.00;0.00
85502;PMS5003;75910;51.198;6.010;2024-03-02T02:55:11;0.00;0.00;0.00
85502;PMS5003;75910;51.198;6.010;2024-03-02T02:57:38;0.00;0.00;0.00
85502;PMS5003;75910;51.198;6.010;2024-03-02T03:00:11;0.00;0.00;0.00
85502;PMS5003;75910;51.198;6.010;2024-03-02T03:02:42;0.00;0.00;0.00
85502;PMS5003;75910;51.198;6.010;2024-03-02T03:05:08;0.00;0.00;0.00
85502;PMS5003;75910;51.198;6.010;2024-03-02T03:07:33;0.00;0.00;0.00
85502;PMS5003;75910;51.198;6.010;2024-03-02T03:10:02;0.00;0.00;0.00
85502;PMS5003;75910;51.198;6.010;2024-03-02T03:12:28;0.00;0.00;0.00
85502;PMS5003;75910;51.198;6.010;2024-03-02T03:14:53;0.00;0.00;0.00
85502;PMS5003;75910;51.198;6.010;2024-03-02T03:17:18;0.00;0.00;0.00
85502;PMS5003;75910;51.198;6.010;2024-03-02T03:19:44;0.00;0.00;0.00
85502;PMS5003;75910;51.198;6.010;2024-03-02T03:22:09;0.00;0.00;0.00
85502;PMS5003;75910;51.198;6.010;2024-03-02T03:24:34;0.00;0.00;0.00
85502;PMS5003;75910;51.198;6.010;2024-03-02T03:27:00;0.00;0.00;0.00
85502;PMS5003;75910;51.198;6.010;2024-03-02T03:29:25;0.00;0.00;0.00
85502;PMS5003;75910;51.198;6.010;2024-03-02T03:31:50;0.00;0.00;0.00
85502;PMS5003;75910;51.198;6.010;2024-03-02T03:34:15;0.00;0.00;0.00
85502;PMS5003;75910;51.198;6.010;2024-03-02T03:36:41;0.00;0.00;0.00
85502;PMS5003;75910;51.198;6.010;2024-03-02T03:39:06;0.00;0.00;0.00
85502;PMS5003;75910;51.198;6.010;2024-03-02T03:41:31;0.00;0.00;0.00
85502;PMS5003;75910;51.198;6.010;2024-03-02T03:43:57;0.00;0.00;0.00
85502;PMS5003;75910;51.198;6.010;2024-03-02T03:46:22;0.00;0.00;0.00
85502;PMS5003;75910;51.198;6.010;2024-03-02T03:48:47;0.00;0.00;0.00
85502;PMS5003;75910;51.198;6.010;2024-03-02T03:51:12;0.00;0.00;0.00
85502;PMS5003;75910;51.198;6.010;2024-03-02T03:53:37;0.00;0.00;0.00
85502;PMS5003;75910;51.198;6.010;2024-03-02T03:56:03;0.00;0.00;0.00
85502;PMS5003;75910;51.198;6.010;2024-03-02T03:58:28;0.00;0.00;0.00
85502;PMS5003;75910;51.198;6.010;2024-03-02T04:00:53;0.00;0.00;0.00
85502;PMS5003;75910;51.198;6.010;2024-03-02T04:03:18;0.00;0.00;0.00
85502;PMS5003;75910;51.198;6.010;2024-03-02T04:05:43;0.00;0.00;0.00
85502;PMS5003;75910;51.198;6.010;2024-03-02T04:08:09;0.00;0.00;0.00
85502;PMS5003;75910;51.198;6.010;2024-03-02T04:10:34;0.00;0.00;0.00
85502;PMS5003;75910;51.198;6.010;2024-03-02T04:12:59;0.00;0.00;0.00
85502;PMS5003;75910;51.198;6.010;2024-03-02T04:15:24;0.00;0.00;0.00
85502;PMS5003;75910;51.198;6.010;2024-03-02T04:17:50;0.00;0.00;0.00
85502;PMS5003;75910;51.198;6.010;2024-03-02T04:20:15;0.00;0.00;0.00
85502;PMS5003;75910;51.198;6.010;2024-03-02T04:22:40;0.00;0.00;0.00
85502;PMS5003;75910;51.198;6.010;2024-03-02T04:25:05;0.00;0.00;0.00
85502;PMS5003;75910;51.198;6.010;2024-03-02T04:27:32;0.00;0.00;0.00
85502;PMS5003;75910;51.198;6.010;2024-03-02T04:29:58;0.00;0.00;0.00
85502;PMS5003;75910;51.198;6.010;2024-03-02T04:32:25;0.00;0.00;0.00
85502;PMS5003;75910;51.198;6.010;2024-03-02T04:34:50;0.00;0.00;0.00
85502;PMS5003;75910;51.198;6.010;2024-03-02T04:37:15;0.00;0.00;0.00
85502;PMS5003;75910;51.198;6.010;2024-03-02T04:39:40;0.00;0.00;0.00
85502;PMS5003;75910;51.198;6.010;2024-03-02T04:42:05;0.00;0.00;0.00
85502;PMS5003;75910;51.198;6.010;2024-03-02T04:44:31;0.00;0.00;0.00
85502;PMS5003;75910;51.198;6.010;2024-03-02T04:46:56;0.00;0.00;0.00
85502;PMS5003;75910;51.198;6.010;2024-03-02T04:49:21;0.00;0.00;0.00
85502;PMS5003;75910;51.198;6.010;2024-03-02T04:51:46;0.00;0.00;0.00
85502;PMS5003;75910;51.198;6.010;2024-03-02T04:54:12;0.00;0.00;0.00
85502;PMS5003;75910;51.198;6.010;2024-03-02T04:56:39;0.00;0.00;0.00
85502;PMS5003;75910;51.198;6.010;2024-03-02T04:59:09;0.00;0.00;0.00
85502;PMS5003;75910;51.198;6.010;2024-03-02T05:01:34;0.00;0.00;0.00
85502;PMS5003;75910;51.198;6.010;2024-03-02T05:03:59;0.00;0.00;0.00
85502;PMS5003;75910;51.198;6.010;2024-03-02T05:06:25;0.00;0.00;0.00
85502;PMS5003;75910;51.198;6.010;2024-03-02T05:08:50;0.00;0.00;0.00
85502;PMS5003;75910;51.198;6.010;2024-03-02T05:11:15;0.00;0.00;0.00
85502;PMS5003;75910;51.198;6.010;2024-03-02T05:13:59;0.00;0.00;0.00
85502;PMS5003;75910;51.198;6.010;2024-03-02T05:16:24;0.00;0.00;0.00
85502;PMS5003;75910;51.198;6.010;2024-03-02T05:18:49;0.00;0.00;0.00
85502;PMS5003;75910;51.198;6.010;2024-03-02T05:21:14;0.00;0.00;0.00
85502;PMS5003;75910;51.198;6.010;2024-03-02T05:23:40;0.00;0.00;0.00
85502;PMS5003;75910;51.198;6.010;2024-03-02T05:26:05;0.00;0.00;0.00
85502;PMS5003;75910;51.198;6.010;2024-03-02T05:28:30;0.00;0.00;0.00
85502;PMS5003;75910;51.198;6.010;2024-03-02T05:30:56;0.00;0.00;0.00
85502;PMS5003;75910;51.198;6.010;2024-03-02T05:33:21;0.00;0.00;0.00
85502;PMS5003;75910;51.198;6.010;2024-03-02T05:35:47;0.00;0.00;0.00
85502;PMS5003;75910;51.198;6.010;2024-03-02T05:38:14;0.00;0.00;0.00
85502;PMS5003;75910;51.198;6.010;2024-03-02T05:40:40;0.00;0.00;0.00
85502;PMS5003;75910;51.198;6.010;2024-03-02T05:43:05;0.00;0.00;0.00
85502;PMS5003;75910;51.198;6.010;2024-03-02T05:45:30;0.00;0.00;0.00
85502;PMS5003;75910;51.198;6.010;2024-03-02T05:47:55;0.00;0.00;0.00
85502;PMS5003;75910;51.198;6.010;2024-03-02T05:50:20;0.00;0.00;0.00
85502;PMS5003;75910;51.198;6.010;2024-03-02T05:52:46;0.00;0.00;0.00
85502;PMS5003;75910;51.198;6.010;2024-03-02T05:55:11;0.00;0.00;0.00
85502;PMS5003;75910;51.198;6.010;2024-03-02T05:57:37;0.00;0.00;0.00
85502;PMS5003;75910;51.198;6.010;2024-03-02T06:00:08;0.00;0.00;0.00
85502;PMS5003;75910;51.198;6.010;2024-03-02T06:02:33;0.00;0.00;0.00
85502;PMS5003;75910;51.198;6.010;2024-03-02T06:05:00;0.40;0.00;0.00
85502;PMS5003;75910;51.198;6.010;2024-03-02T06:07:25;0.00;0.00;0.00
85502;PMS5003;75910;51.198;6.010;2024-03-02T06:09:50;0.00;0.00;0.00
85502;PMS5003;75910;51.198;6.010;2024-03-02T06:12:17;0.40;0.40;0.00
85502;PMS5003;75910;51.198;6.010;2024-03-02T06:14:43;0.00;0.00;0.00
85502;PMS5003;75910;51.198;6.010;2024-03-02T06:17:08;0.00;0.00;0.00
85502;PMS5003;75910;51.198;6.010;2024-03-02T06:19:33;0.00;0.00;0.00
85502;PMS5003;75910;51.198;6.010;2024-03-02T06:21:58;0.00;0.00;0.00
85502;PMS5003;75910;51.198;6.010;2024-03-02T06:24:23;0.00;0.00;0.00
85502;PMS5003;75910;51.198;6.010;2024-03-02T06:26:49;0.00;0.00;0.00
85502;PMS5003;75910;51.198;6.010;2024-03-02T06:29:14;0.00;0.00;0.00
85502;PMS5003;75910;51.198;6.010;2024-03-02T06:31:39;0.00;0.00;0.00
85502;PMS5003;75910;51.198;6.010;2024-03-02T06:34:04;0.00;0.00;0.00
85502;PMS5003;75910;51.198;6.010;2024-03-02T06:36:29;0.00;0.00;0.00
85502;PMS5003;75910;51.198;6.010;2024-03-02T06:38:55;0.33;0.00;0.00
85502;PMS5003;75910;51.198;6.010;2024-03-02T06:41:20;0.00;0.00;0.00
85502;PMS5003;75910;51.198;6.010;2024-03-02T06:43:45;0.00;0.00;0.00
85502;PMS5003;75910;51.198;6.010;2024-03-02T06:46:10;2.25;0.50;0.00
85502;PMS5003;75910;51.198;6.010;2024-03-02T06:48:39;0.00;0.00;0.00
85502;PMS5003;75910;51.198;6.010;2024-03-02T06:51:04;0.00;0.00;0.00
85502;PMS5003;75910;51.198;6.010;2024-03-02T06:53:30;0.00;0.00;0.00
85502;PMS5003;75910;51.198;6.010;2024-03-02T06:55:56;0.50;0.00;0.00
85502;PMS5003;75910;51.198;6.010;2024-03-02T06:58:21;0.00;0.00;0.00
85502;PMS5003;75910;51.198;6.010;2024-03-02T07:00:47;0.00;0.00;0.00
85502;PMS5003;75910;51.198;6.010;2024-03-02T07:03:17;0.00;0.00;0.00
85502;PMS5003;75910;51.198;6.010;2024-03-02T07:05:42;0.00;0.00;0.00
85502;PMS5003;75910;51.198;6.010;2024-03-02T07:08:07;0.00;0.00;0.00
85502;PMS5003;75910;51.198;6.010;2024-03-02T07:10:33;0.00;0.00;0.00
85502;PMS5003;75910;51.198;6.010;2024-03-02T07:12:58;0.00;0.00;0.00
85502;PMS5003;75910;51.198;6.010;2024-03-02T07:15:23;0.00;0.00;0.00
85502;PMS5003;75910;51.198;6.010;2024-03-02T07:18:07;0.20;0.00;0.00
85502;PMS5003;75910;51.198;6.010;2024-03-02T07:20:32;1.00;0.00;0.00
85502;PMS5003;75910;51.198;6.010;2024-03-02T07:22:57;0.00;0.00;0.00
85502;PMS5003;75910;51.198;6.010;2024-03-02T07:25:23;0.00;0.00;0.00
85502;PMS5003;75910;51.198;6.010;2024-03-02T07:27:48;0.00;0.00;0.00
85502;PMS5003;75910;51.198;6.010;2024-03-02T07:30:13;0.00;0.00;0.00
85502;PMS5003;75910;51.198;6.010;2024-03-02T07:32:39;0.00;0.00;0.00
85502;PMS5003;75910;51.198;6.010;2024-03-02T07:35:06;0.00;0.00;0.00
85502;PMS5003;75910;51.198;6.010;2024-03-02T07:37:31;0.00;0.00;0.00
85502;PMS5003;75910;51.198;6.010;2024-03-02T07:39:56;0.67;0.00;0.00
85502;PMS5003;75910;51.198;6.010;2024-03-02T07:42:21;0.00;0.00;0.00
85502;PMS5003;75910;51.198;6.010;2024-03-02T07:44:46;0.00;0.00;0.00
85502;PMS5003;75910;51.198;6.010;2024-03-02T07:47:12;0.00;0.00;0.00
85502;PMS5003;75910;51.198;6.010;2024-03-02T07:49:37;0.00;0.00;0.00
85502;PMS5003;75910;51.198;6.010;2024-03-02T07:52:03;0.00;0.00;0.00
85502;PMS5003;75910;51.198;6.010;2024-03-02T07:54:28;0.00;0.00;0.00
85502;PMS5003;75910;51.198;6.010;2024-03-02T07:56:53;0.00;0.00;0.00
85502;PMS5003;75910;51.198;6.010;2024-03-02T07:59:18;0.00;0.00;0.00
85502;PMS5003;75910;51.198;6.010;2024-03-02T08:01:44;0.00;0.00;0.00
85502;PMS5003;75910;51.198;6.010;2024-03-02T08:04:09;0.00;0.00;0.00
85502;PMS5003;75910;51.198;6.010;2024-03-02T08:06:34;0.00;0.00;0.00
85502;PMS5003;75910;51.198;6.010;2024-03-02T08:09:00;0.00;0.00;0.00
85502;PMS5003;75910;51.198;6.010;2024-03-02T08:11:26;0.60;0.60;0.00
85502;PMS5003;75910;51.198;6.010;2024-03-02T08:13:52;0.00;0.00;0.00
85502;PMS5003;75910;51.198;6.010;2024-03-02T08:16:19;0.00;0.00;0.00
85502;PMS5003;75910;51.198;6.010;2024-03-02T08:18:47;0.00;0.00;0.00
85502;PMS5003;75910;51.198;6.010;2024-03-02T08:21:12;0.00;0.00;0.00
85502;PMS5003;75910;51.198;6.010;2024-03-02T08:23:38;0.00;0.00;0.00
85502;PMS5003;75910;51.198;6.010;2024-03-02T08:26:05;0.00;0.00;0.00
85502;PMS5003;75910;51.198;6.010;2024-03-02T08:28:31;0.00;0.00;0.00
85502;PMS5003;75910;51.198;6.010;2024-03-02T08:30:56;1.00;0.00;0.00
85502;PMS5003;75910;51.198;6.010;2024-03-02T08:33:21;0.33;0.00;0.00
85502;PMS5003;75910;51.198;6.010;2024-03-02T08:35:47;0.00;0.00;0.00
85502;PMS5003;75910;51.198;6.010;2024-03-02T08:38:12;1.00;0.00;0.00
85502;PMS5003;75910;51.198;6.010;2024-03-02T08:40:37;0.75;0.00;0.00
85502;PMS5003;75910;51.198;6.010;2024-03-02T08:43:02;0.00;0.00;0.00
85502;PMS5003;75910;51.198;6.010;2024-03-02T08:45:28;0.33;0.00;0.00
85502;PMS5003;75910;51.198;6.010;2024-03-02T08:47:53;0.00;0.00;0.00
85502;PMS5003;75910;51.198;6.010;2024-03-02T08:50:18;0.00;0.00;0.00
85502;PMS5003;75910;51.198;6.010;2024-03-02T08:52:44;0.00;0.00;0.00
85502;PMS5003;75910;51.198;6.010;2024-03-02T08:55:09;0.00;0.00;0.00
85502;PMS5003;75910;51.198;6.010;2024-03-02T08:57:36;0.00;0.00;0.00
85502;PMS5003;75910;51.198;6.010;2024-03-02T09:00:01;0.00;0.00;0.00
85502;PMS5003;75910;51.198;6.010;2024-03-02T09:02:26;0.00;0.00;0.00
85502;PMS5003;75910;51.198;6.010;2024-03-02T09:04:52;0.00;0.00;0.00
85502;PMS5003;75910;51.198;6.010;2024-03-02T09:07:18;0.00;0.00;0.00
85502;PMS5003;75910;51.198;6.010;2024-03-02T09:09:43;0.00;0.00;0.00
85502;PMS5003;75910;51.198;6.010;2024-03-02T09:12:08;0.00;0.00;0.00
85502;PMS5003;75910;51.198;6.010;2024-03-02T09:14:34;0.00;0.00;0.00
85502;PMS5003;75910;51.198;6.010;2024-03-02T09:17:00;0.00;0.00;0.00
85502;PMS5003;75910;51.198;6.010;2024-03-02T09:19:25;0.00;0.00;0.00
85502;PMS5003;75910;51.198;6.010;2024-03-02T09:21:50;0.00;0.00;0.00
85502;PMS5003;75910;51.198;6.010;2024-03-02T09:24:15;0.00;0.00;0.00
85502;PMS5003;75910;51.198;6.010;2024-03-02T09:26:40;0.00;0.00;0.00
85502;PMS5003;75910;51.198;6.010;2024-03-02T09:29:06;0.00;0.00;0.00
85502;PMS5003;75910;51.198;6.010;2024-03-02T09:31:31;0.00;0.00;0.00
85502;PMS5003;75910;51.198;6.010;2024-03-02T09:33:56;0.00;0.00;0.00
85502;PMS5003;75910;51.198;6.010;2024-03-02T09:36:22;0.00;0.00;0.00
85502;PMS5003;75910;51.198;6.010;2024-03-02T09:38:47;0.00;0.00;0.00
85502;PMS5003;75910;51.198;6.010;2024-03-02T09:41:13;0.00;0.00;0.00
85502;PMS5003;75910;51.198;6.010;2024-03-02T09:43:39;0.00;0.00;0.00
85502;PMS5003;75910;51.198;6.010;2024-03-02T09:46:04;0.00;0.00;0.00
85502;PMS5003;75910;51.198;6.010;2024-03-02T09:48:30;0.00;0.00;0.00
85502;PMS5003;75910;51.198;6.010;2024-03-02T09:50:55;0.00;0.00;0.00
85502;PMS5003;75910;51.198;6.010;2024-03-02T09:53:21;0.00;0.00;0.00
85502;PMS5003;75910;51.198;6.010;2024-03-02T09:55:47;0.50;0.00;0.00
85502;PMS5003;75910;51.198;6.010;2024-03-02T09:58:12;0.00;0.00;0.00
85502;PMS5003;75910;51.198;6.010;2024-03-02T10:00:38;0.00;0.00;0.00
85502;PMS5003;75910;51.198;6.010;2024-03-02T10:03:03;0.33;0.33;0.00
85502;PMS5003;75910;51.198;6.010;2024-03-02T10:05:29;0.00;0.00;0.00
85502;PMS5003;75910;51.198;6.010;2024-03-02T10:08:01;1.00;0.00;0.00
85502;PMS5003;75910;51.198;6.010;2024-03-02T10:10:37;1.00;0.00;0.00
85502;PMS5003;75910;51.198;6.010;2024-03-02T10:13:07;0.00;0.00;0.00
85502;PMS5003;75910;51.198;6.010;2024-03-02T10:15:32;1.00;0.00;0.00
85502;PMS5003;75910;51.198;6.010;2024-03-02T10:17:58;1.50;1.00;0.00
85502;PMS5003;75910;51.198;6.010;2024-03-02T10:20:26;1.50;1.00;0.00
85502;PMS5003;75910;51.198;6.010;2024-03-02T10:22:54;1.00;1.00;0.00
85502;PMS5003;75910;51.198;6.010;2024-03-02T10:25:29;88.00;59.00;31.00
85502;PMS5003;75910;51.198;6.010;2024-03-02T10:27:57;59.60;44.40;20.80
85502;PMS5003;75910;51.198;6.010;2024-03-02T10:30:22;62.20;42.60;19.00
85502;PMS5003;75910;51.198;6.010;2024-03-02T10:32:48;60.75;41.50;22.00
85502;PMS5003;75910;51.198;6.010;2024-03-02T10:35:14;47.00;33.20;17.00
85502;PMS5003;75910;51.198;6.010;2024-03-02T10:37:39;42.80;29.60;14.40
85502;PMS5003;75910;51.198;6.010;2024-03-02T10:40:05;45.00;34.25;15.25
85502;PMS5003;75910;51.198;6.010;2024-03-02T10:42:31;39.25;27.75;13.00
85502;PMS5003;75910;51.198;6.010;2024-03-02T10:44:56;25.25;21.75;12.00
85502;PMS5003;75910;51.198;6.010;2024-03-02T10:47:22;30.25;21.75;9.25
85502;PMS5003;75910;51.198;6.010;2024-03-02T10:49:48;29.20;22.60;11.00
85502;PMS5003;75910;51.198;6.010;2024-03-02T10:52:16;30.80;23.40;9.20
85502;PMS5003;75910;51.198;6.010;2024-03-02T10:54:42;30.60;23.80;9.40
85502;PMS5003;75910;51.198;6.010;2024-03-02T10:57:08;19.60;15.40;7.60
85502;PMS5003;75910;51.198;6.010;2024-03-02T10:59:36;23.20;17.00;8.00
85502;PMS5003;75910;51.198;6.010;2024-03-02T11:02:02;19.60;15.40;7.00
85502;PMS5003;75910;51.198;6.010;2024-03-02T11:04:29;17.20;13.20;6.60
85502;PMS5003;75910;51.198;6.010;2024-03-02T11:07:04;22.40;13.20;6.20
85502;PMS5003;75910;51.198;6.010;2024-03-02T11:09:31;15.20;12.80;6.00
85502;PMS5003;75910;51.198;6.010;2024-03-02T11:12:15;14.00;12.20;5.60
85502;PMS5003;75910;51.198;6.010;2024-03-02T11:14:44;18.20;11.20;6.00
85502;PMS5003;75910;51.198;6.010;2024-03-02T11:17:09;14.25;10.25;4.00
85502;PMS5003;75910;51.198;6.010;2024-03-02T11:19:36;12.00;8.00;4.00
85502;PMS5003;75910;51.198;6.010;2024-03-02T11:22:02;9.40;8.20;3.00
85502;PMS5003;75910;51.198;6.010;2024-03-02T11:24:29;9.60;7.00;2.00
85502;PMS5003;75910;51.198;6.010;2024-03-02T11:27:01;9.20;7.80;3.80
85502;PMS5003;75910;51.198;6.010;2024-03-02T11:32:05;8.80;5.60;2.80
85502;PMS5003;75910;51.198;6.010;2024-03-02T11:34:34;8.00;5.60;3.00
85502;PMS5003;75910;51.198;6.010;2024-03-02T11:37:00;11.60;8.00;4.00
85502;PMS5003;75910;51.198;6.010;2024-03-02T11:39:26;9.80;6.60;2.00
85502;PMS5003;75910;51.198;6.010;2024-03-02T11:41:52;11.75;8.00;4.00
85502;PMS5003;75910;51.198;6.010;2024-03-02T11:44:17;11.00;7.25;3.50
85502;PMS5003;75910;51.198;6.010;2024-03-02T11:46:44;8.50;7.50;3.00
85502;PMS5003;75910;51.198;6.010;2024-03-02T11:49:10;11.20;7.00;2.20
85502;PMS5003;75910;51.198;6.010;2024-03-02T11:51:38;12.20;7.40;3.20
85502;PMS5003;75910;51.198;6.010;2024-03-02T11:54:15;7.60;6.60;3.00
85502;PMS5003;75910;51.198;6.010;2024-03-02T11:56:40;10.50;8.25;3.25
85502;PMS5003;75910;51.198;6.010;2024-03-02T11:59:06;7.25;7.00;3.00
85502;PMS5003;75910;51.198;6.010;2024-03-02T12:01:33;10.25;8.25;3.50
85502;PMS5003;75910;51.198;6.010;2024-03-02T12:03:59;9.40;8.00;4.00
85502;PMS5003;75910;51.198;6.010;2024-03-02T12:06:24;9.75;9.00;4.50
85502;PMS5003;75910;51.198;6.010;2024-03-02T12:08:52;12.75;9.25;3.75
85502;PMS5003;75910;51.198;6.010;2024-03-02T12:11:17;14.60;13.60;8.00
85502;PMS5003;75910;51.198;6.010;2024-03-02T12:13:51;17.50;15.00;10.50
85502;PMS5003;75910;51.198;6.010;2024-03-02T12:16:22;17.40;13.40;8.60
85502;PMS5003;75910;51.198;6.010;2024-03-02T12:18:47;15.60;12.80;8.00
85502;PMS5003;75910;51.198;6.010;2024-03-02T12:21:13;14.75;14.00;9.00
85502;PMS5003;75910;51.198;6.010;2024-03-02T12:23:38;12.00;9.25;5.00
85502;PMS5003;75910;51.198;6.010;2024-03-02T12:26:03;15.50;14.00;8.75
85502;PMS5003;75910;51.198;6.010;2024-03-02T12:28:28;11.50;10.00;8.00
85502;PMS5003;75910;51.198;6.010;2024-03-02T12:30:54;11.00;9.75;7.00
85502;PMS5003;75910;51.198;6.010;2024-03-02T12:33:19;11.75;10.00;5.50
85502;PMS5003;75910;51.198;6.010;2024-03-02T12:35:44;12.50;11.50;6.75
85502;PMS5003;75910;51.198;6.010;2024-03-02T12:38:10;8.50;7.00;4.00
85502;PMS5003;75910;51.198;6.010;2024-03-02T12:40:36;10.00;7.60;4.40
85502;PMS5003;75910;51.198;6.010;2024-03-02T12:43:02;7.20;5.80;3.80
85502;PMS5003;75910;51.198;6.010;2024-03-02T12:45:27;10.00;9.00;5.25
85502;PMS5003;75910;51.198;6.010;2024-03-02T12:47:52;8.00;6.00;3.50
85502;PMS5003;75910;51.198;6.010;2024-03-02T12:50:18;8.00;7.00;4.00
85502;PMS5003;75910;51.198;6.010;2024-03-02T12:52:44;8.20;6.40;3.00
85502;PMS5003;75910;51.198;6.010;2024-03-02T12:55:15;8.40;7.80;4.00
85502;PMS5003;75910;51.198;6.010;2024-03-02T12:57:40;9.00;5.50;3.00
85502;PMS5003;75910;51.198;6.010;2024-03-02T13:00:06;6.00;5.75;2.50
85502;PMS5003;75910;51.198;6.010;2024-03-02T13:02:35;6.60;5.00;3.20
85502;PMS5003;75910;51.198;6.010;2024-03-02T13:05:00;7.20;6.20;4.00
85502;PMS5003;75910;51.198;6.010;2024-03-02T13:07:26;7.75;5.25;3.00
85502;PMS5003;75910;51.198;6.010;2024-03-02T13:09:52;6.00;5.00;3.50
85502;PMS5003;75910;51.198;6.010;2024-03-02T13:12:17;5.25;3.00;2.00
85502;PMS5003;75910;51.198;6.010;2024-03-02T13:14:42;5.00;3.25;3.00
85502;PMS5003;75910;51.198;6.010;2024-03-02T13:17:08;5.00;4.00;2.00
85502;PMS5003;75910;51.198;6.010;2024-03-02T13:19:34;6.50;4.00;3.00
85502;PMS5003;75910;51.198;6.010;2024-03-02T13:21:59;4.00;3.75;2.25
85502;PMS5003;75910;51.198;6.010;2024-03-02T13:24:24;3.50;3.25;1.75
85502;PMS5003;75910;51.198;6.010;2024-03-02T13:26:53;4.60;4.40;2.80
85502;PMS5003;75910;51.198;6.010;2024-03-02T13:29:20;3.40;3.00;2.20
85502;PMS5003;75910;51.198;6.010;2024-03-02T13:31:46;3.00;2.00;1.00
85502;PMS5003;75910;51.198;6.010;2024-03-02T13:34:11;3.50;3.00;2.00
85502;PMS5003;75910;51.198;6.010;2024-03-02T13:36:36;3.00;3.00;2.00
85502;PMS5003;75910;51.198;6.010;2024-03-02T13:39:01;2.00;2.00;1.00
85502;PMS5003;75910;51.198;6.010;2024-03-02T13:41:27;2.80;2.20;1.00
85502;PMS5003;75910;51.198;6.010;2024-03-02T13:43:52;2.75;2.50;2.00
85502;PMS5003;75910;51.198;6.010;2024-03-02T13:46:18;2.50;2.50;2.00
85502;PMS5003;75910;51.198;6.010;2024-03-02T13:48:43;4.50;3.00;1.75
85502;PMS5003;75910;51.198;6.010;2024-03-02T13:51:08;2.00;2.00;1.00
85502;PMS5003;75910;51.198;6.010;2024-03-02T13:53:34;3.00;2.33;1.00
85502;PMS5003;75910;51.198;6.010;2024-03-02T13:55:59;3.00;2.00;1.25
85502;PMS5003;75910;51.198;6.010;2024-03-02T13:58:24;2.50;2.50;1.25
85502;PMS5003;75910;51.198;6.010;2024-03-02T14:00:50;2.25;2.25;2.00
85502;PMS5003;75910;51.198;6.010;2024-03-02T14:03:15;2.00;2.00;1.00
85502;PMS5003;75910;51.198;6.010;2024-03-02T14:05:40;3.00;2.00;1.00
85502;PMS5003;75910;51.198;6.010;2024-03-02T14:08:06;3.00;2.00;1.00
85502;PMS5003;75910;51.198;6.010;2024-03-02T14:10:31;2.75;2.75;2.00
85502;PMS5003;75910;51.198;6.010;2024-03-02T14:12:56;1.00;1.00;0.75